Time;durP1;ratioP1;P1;durP2;ratioP2;P2;SDS_P1;SDS_P2;PMS_P1;PMS_P2;Temp;Humidity;BMP_temperature;BMP_pressure;BME280_temperature;BME280_humidity;BME280_pressure;Samples;Min_cycle;Max_cycle;Signal;HPM_P1;HPM_P2
2023/06/13 00:03:42;;;;;;;17.90;16.05;;;24.70;69.40;;;;;;4615322;59;21451;-37
2023/06/13 00:08:43;;;;;;;15.98;14.48;;;24.70;69.30;;;;;;4773714;55;21049;-36
2023/06/13 00:13:45;;;;;;;18.20;16.30;;;24.60;69.30;;;;;;4754511;56;21014;-35
2023/06/13 00:18:45;;;;;;;17.55;15.80;;;24.60;69.30;;;;;;4692110;55;21479;-35
2023/06/13 00:23:46;;;;;;;16.85;15.13;;;24.70;69.30;;;;;;4749033;55;21061;-36
2023/06/13 00:28:47;;;;;;;16.50;14.90;;;24.70;69.30;;;;;;4616600;55;21160;-36
2023/06/13 00:33:50;;;;;;;16.23;14.63;;;24.60;69.30;;;;;;4615258;59;21009;-35
2023/06/13 00:38:52;;;;;;;16.75;15.05;;;24.70;69.40;;;;;;4705509;55;21552;-35
2023/06/13 00:43:53;;;;;;;16.62;15.02;;;24.70;69.40;;;;;;4617744;55;21088;-37
2023/06/13 00:48:53;;;;;;;16.50;14.75;;;24.70;69.40;;;;;;4697297;55;21105;-37
2023/06/13 00:53:56;;;;;;;16.35;14.65;;;24.70;69.40;;;;;;4691958;55;21076;-36
2023/06/13 00:58:59;;;;;;;16.08;14.57;;;24.70;69.40;;;;;;4624431;56;21074;-35
2023/06/13 01:04:00;;;;;;;16.05;14.55;;;24.70;69.40;;;;;;4652647;56;21626;-38
2023/06/13 01:09:02;;;;;;;16.20;14.65;;;24.70;69.40;;;;;;4652217;55;21120;-39
2023/06/13 01:15:10;;;;;;;16.62;14.95;;;24.70;69.40;;;;;;4709395;55;21496;-36
2023/06/13 01:20:14;;;;;;;15.85;14.30;;;24.70;69.40;;;;;;4870057;56;21066;-35
2023/06/13 01:25:28;;;;;;;15.80;14.20;;;24.70;69.40;;;;;;4617571;56;21434;-36
2023/06/13 01:30:29;;;;;;;15.77;14.00;;;24.60;69.40;;;;;;4657630;56;21021;-35
2023/06/13 01:35:32;;;;;;;15.93;14.32;;;24.60;69.40;;;;;;4769882;56;21026;-35
2023/06/13 01:40:36;;;;;;;15.88;14.35;;;24.60;69.40;;;;;;4694471;56;21587;-37
2023/06/13 01:45:37;;;;;;;15.07;13.68;;;24.60;69.40;;;;;;4799103;56;21132;-35
2023/06/13 01:51:07;;;;;;;15.98;14.45;;;24.60;69.40;;;;;;4614987;59;21630;-37
2023/06/13 01:56:12;;;;;;;16.37;14.73;;;24.60;69.40;;;;;;4795607;56;21437;-34
2023/06/13 02:01:13;;;;;;;15.18;13.60;;;24.70;69.40;;;;;;4693915;56;21033;-34
2023/06/13 02:06:15;;;;;;;14.82;13.43;;;24.60;69.40;;;;;;4777501;56;21073;-39
2023/06/13 02:11:16;;;;;;;15.85;14.35;;;24.60;69.40;;;;;;4615079;55;21599;-36
2023/06/13 02:16:25;;;;;;;13.90;12.60;;;24.60;69.40;;;;;;4615446;59;21061;-36
2023/06/13 02:21:27;;;;;;;15.52;14.02;;;24.60;69.40;;;;;;4688980;55;21515;-34
2023/06/13 02:26:30;;;;;;;15.93;14.32;;;24.60;69.40;;;;;;4615743;60;21079;-34
2023/06/13 02:31:35;;;;;;;14.70;13.27;;;24.60;69.40;;;;;;4660549;55;21511;-35
2023/06/13 02:36:36;;;;;;;15.90;14.40;;;24.60;69.40;;;;;;4687950;55;21539;-36
2023/06/13 02:41:37;;;;;;;15.05;13.55;;;24.60;69.30;;;;;;4679408;55;21507;-37
2023/06/13 02:46:38;;;;;;;14.07;12.73;;;24.60;69.40;;;;;;4615333;60;21017;-39
2023/06/13 02:51:39;;;;;;;14.23;12.88;;;24.60;69.30;;;;;;4711502;55;21552;-35
2023/06/13 02:56:39;;;;;;;14.32;13.02;;;24.60;69.40;;;;;;4657739;55;21141;-36
2023/06/13 03:01:40;;;;;;;14.75;13.35;;;24.60;69.40;;;;;;4615804;55;21104;-36
2023/06/13 03:06:44;;;;;;;14.30;12.75;;;24.60;69.20;;;;;;4663266;55;21037;-37
2023/06/13 03:11:45;;;;;;;14.90;13.45;;;24.60;69.30;;;;;;4819209;55;21571;-34
2023/06/13 03:16:46;;;;;;;14.00;12.60;;;24.60;69.20;;;;;;4615559;59;21021;-37
2023/06/13 03:21:47;;;;;;;14.20;12.82;;;24.60;69.20;;;;;;4642643;56;21029;-35
2023/06/13 03:26:48;;;;;;;13.10;11.82;;;24.60;69.20;;;;;;4885712;55;21037;-38
2023/06/13 03:31:52;;;;;;;14.13;12.73;;;24.60;69.20;;;;;;4644948;55;21458;-34
2023/06/13 03:36:53;;;;;;;13.38;12.18;;;24.60;69.20;;;;;;4846335;55;21540;-39
2023/06/13 03:41:53;;;;;;;13.38;12.13;;;24.60;69.10;;;;;;4671808;56;21084;-36
2023/06/13 03:46:58;;;;;;;13.38;12.00;;;24.60;69.10;;;;;;4631155;55;21092;-34
2023/06/13 03:51:59;;;;;;;13.48;12.18;;;24.60;68.90;;;;;;4675799;56;21077;-37
2023/06/13 03:57:00;;;;;;;13.10;11.80;;;24.60;68.90;;;;;;4627448;56;21116;-36
2023/06/13 04:02:00;;;;;;;12.95;11.65;;;24.60;68.80;;;;;;4616402;55;21100;-38
2023/06/13 04:07:05;;;;;;;13.15;11.80;;;24.60;68.80;;;;;;4742406;55;21061;-36
2023/06/13 04:12:07;;;;;;;12.43;11.23;;;24.50;68.70;;;;;;4749073;55;21105;-35
2023/06/13 04:17:09;;;;;;;12.77;11.48;;;24.60;68.80;;;;;;4664067;56;21004;-36
2023/06/13 04:22:10;;;;;;;12.07;10.98;;;24.60;69.30;;;;;;4709818;55;21524;-36
2023/06/13 04:27:13;;;;;;;12.70;11.48;;;24.60;68.60;;;;;;4615459;55;21013;-38
2023/06/13 04:32:17;;;;;;;12.05;10.85;;;24.60;68.60;;;;;;4650304;56;21488;-36
2023/06/13 04:37:25;;;;;;;11.15;9.90;;;24.60;68.60;;;;;;4615388;60;21499;-36
2023/06/13 04:42:29;;;;;;;12.55;11.25;;;24.60;68.50;;;;;;4615145;56;21547;-36
2023/06/13 04:47:30;;;;;;;12.68;10.65;;;24.60;68.40;;;;;;4630890;56;21117;-36
2023/06/13 04:52:32;;;;;;;11.57;10.48;;;24.60;68.40;;;;;;4646199;56;21483;-35
2023/06/13 04:57:33;;;;;;;11.52;10.32;;;24.60;68.30;;;;;;4685919;55;21500;-34
2023/06/13 05:02:35;;;;;;;11.75;10.65;;;24.50;68.20;;;;;;4694443;55;21029;-37
2023/06/13 05:07:36;;;;;;;11.38;10.27;;;24.60;68.20;;;;;;4648066;55;21491;-37
2023/06/13 05:12:37;;;;;;;11.15;9.95;;;24.50;68.10;;;;;;4615746;60;21025;-35
2023/06/13 05:17:39;;;;;;;11.70;10.02;;;24.60;68.00;;;;;;4662723;56;21021;-37
2023/06/13 05:22:41;;;;;;;11.77;10.48;;;24.60;68.00;;;;;;4658825;55;21499;-37
2023/06/13 05:27:42;;;;;;;11.12;10.13;;;24.50;67.80;;;;;;4652787;56;21073;-36
2023/06/13 05:32:43;;;;;;;11.10;10.10;;;24.50;67.80;;;;;;4650857;55;21641;-35
2023/06/13 05:37:44;;;;;;;10.27;9.38;;;24.50;67.60;;;;;;4769541;55;21073;-39
2023/06/13 05:42:44;;;;;;;10.60;9.57;;;24.50;67.50;;;;;;4643605;56;21599;-37
2023/06/13 05:47:45;;;;;;;11.30;9.43;;;24.50;67.50;;;;;;4640796;56;21100;-34
2023/06/13 05:52:46;;;;;;;10.35;9.32;;;24.50;67.40;;;;;;4617540;56;21570;-37
2023/06/13 05:57:48;;;;;;;10.77;9.68;;;24.50;67.40;;;;;;4718625;56;21123;-37
2023/06/13 06:02:50;;;;;;;10.93;9.60;;;24.50;67.30;;;;;;4615572;60;21518;-36
2023/06/13 06:07:51;;;;;;;9.50;8.63;;;24.50;67.30;;;;;;4704030;56;21423;-40
2023/06/13 06:12:52;;;;;;;9.63;8.73;;;24.50;67.20;;;;;;4624601;56;21582;-37
2023/06/13 06:17:53;;;;;;;10.27;9.23;;;24.50;67.10;;;;;;4678591;56;21045;-34
2023/06/13 06:22:53;;;;;;;9.63;8.73;;;24.50;67.00;;;;;;4636594;56;21347;-40
2023/06/13 06:27:57;;;;;;;9.48;8.65;;;24.50;67.00;;;;;;4653561;56;21081;-38
2023/06/13 06:32:58;;;;;;;10.52;9.52;;;24.50;67.10;;;;;;4627916;56;21059;-36
2023/06/13 06:38:00;;;;;;;9.65;8.60;;;24.50;66.90;;;;;;4628134;56;21080;-34
2023/06/13 06:43:01;;;;;;;10.15;9.10;;;24.50;66.90;;;;;;4638115;56;21578;-39
2023/06/13 06:48:02;;;;;;;10.73;9.55;;;24.50;66.90;;;;;;4617188;56;21096;-35
2023/06/13 06:53:03;;;;;;;12.88;9.05;;;24.50;66.90;;;;;;4613732;60;21121;-39
2023/06/13 06:58:03;;;;;;;10.52;9.43;;;24.50;66.80;;;;;;4629612;56;21599;-35
2023/06/13 07:03:06;;;;;;;12.73;9.90;;;24.60;66.40;;;;;;4611600;60;21124;-33
2023/06/13 07:08:07;;;;;;;13.43;9.82;;;24.60;66.20;;;;;;4653697;56;21595;-36
2023/06/13 07:13:07;;;;;;;11.07;9.88;;;24.70;66.50;;;;;;4626299;56;21140;-36
2023/06/13 07:18:09;;;;;;;10.85;9.55;;;24.80;66.50;;;;;;4616224;56;21013;-36
2023/06/13 07:23:10;;;;;;;10.85;9.75;;;24.80;67.30;;;;;;4613822;60;21486;-34
2023/06/13 07:28:11;;;;;;;11.20;9.77;;;24.80;66.60;;;;;;4613461;60;21104;-35
2023/06/13 07:33:12;;;;;;;11.23;10.05;;;24.80;66.80;;;;;;4613984;60;21022;-39
2023/06/13 07:38:13;;;;;;;11.10;10.00;;;24.70;66.50;;;;;;4629614;55;21740;-30
2023/06/13 07:43:17;;;;;;;11.98;9.63;;;24.70;66.60;;;;;;4611363;56;21067;-35
2023/06/13 07:48:18;;;;;;;12.35;10.93;;;24.70;66.60;;;;;;4614788;60;21021;-39
2023/06/13 07:53:19;;;;;;;11.32;9.70;;;24.70;66.50;;;;;;4628832;55;21029;-38
2023/06/13 07:58:20;;;;;;;12.00;10.30;;;24.70;66.50;;;;;;4667565;56;21109;-35
2023/06/13 08:03:21;;;;;;;12.10;10.13;;;24.70;66.50;;;;;;4615196;59;21068;-38
2023/06/13 08:08:21;;;;;;;13.48;11.00;;;24.70;66.50;;;;;;4613997;60;21104;-38
2023/06/13 08:13:22;;;;;;;12.27;11.05;;;24.70;66.40;;;;;;4715195;55;21017;-33
2023/06/13 08:18:23;;;;;;;13.32;11.90;;;24.70;66.40;;;;;;4635943;55;21029;-38
2023/06/13 08:23:24;;;;;;;16.77;12.40;;;24.70;66.40;;;;;;4614719;59;22018;-39
2023/06/13 08:28:28;;;;;;;15.35;12.23;;;24.70;66.30;;;;;;4613980;60;21077;-36
2023/06/13 08:33:28;;;;;;;15.30;12.02;;;24.70;66.30;;;;;;4681097;55;21587;-31
2023/06/13 08:38:29;;;;;;;15.80;12.27;;;24.70;66.20;;;;;;4614136;59;21089;-37
2023/06/13 08:43:31;;;;;;;14.13;11.05;;;24.70;66.40;;;;;;4641907;55;21508;-34
2023/06/13 08:48:32;;;;;;;15.55;11.57;;;24.70;66.10;;;;;;4643457;56;21137;-35
2023/06/13 08:53:36;;;;;;;13.30;11.07;;;24.70;66.20;;;;;;4614389;59;21583;-37
2023/06/13 08:58:40;;;;;;;16.08;12.18;;;24.70;66.20;;;;;;4656304;56;21036;-37
2023/06/13 09:03:41;;;;;;;14.07;12.35;;;24.70;66.10;;;;;;4613381;58;21073;-37
2023/06/13 09:08:42;;;;;;;14.55;12.23;;;24.80;66.10;;;;;;4634798;56;21033;-32
2023/06/13 09:13:45;;;;;;;13.18;11.77;;;24.80;66.10;;;;;;4632160;55;21049;-37
2023/06/13 09:18:49;;;;;;;15.55;12.10;;;24.80;66.10;;;;;;4631504;56;21483;-34
2023/06/13 09:23:52;;;;;;;14.35;12.10;;;24.70;66.00;;;;;;4627467;56;21033;-37
2023/06/13 09:28:53;;;;;;;16.40;12.07;;;24.70;66.10;;;;;;4614690;60;21142;-36
2023/06/13 09:33:54;;;;;;;14.23;12.32;;;24.80;66.00;;;;;;4752672;55;21541;-38
2023/06/13 09:38:55;;;;;;;12.85;11.55;;;24.80;66.10;;;;;;4686567;56;21511;-36
2023/06/13 09:44:01;;;;;;;14.38;12.70;;;24.80;66.00;;;;;;4639215;56;21065;-36
2023/06/13 09:49:02;;;;;;;14.50;12.48;;;24.80;66.00;;;;;;4636912;56;21033;-37
2023/06/13 09:54:08;;;;;;;14.60;11.95;;;24.70;65.90;;;;;;4691101;56;21092;-37
2023/06/13 09:59:18;;;;;;;15.02;12.50;;;24.80;66.00;;;;;;4647978;55;21019;-37
2023/06/13 10:04:21;;;;;;;17.85;12.95;;;24.80;66.00;;;;;;4615610;59;21093;-38
2023/06/13 10:09:22;;;;;;;15.48;13.18;;;24.80;66.00;;;;;;4648785;55;21633;-37
2023/06/13 10:14:23;;;;;;;14.82;12.35;;;24.70;65.90;;;;;;4619803;55;21132;-36
2023/06/13 10:19:25;;;;;;;15.82;12.95;;;24.80;65.80;;;;;;4658826;56;21433;-36
2023/06/13 10:24:27;;;;;;;15.57;13.10;;;24.80;65.80;;;;;;4643740;56;21093;-31
2023/06/13 10:30:56;;;;;;;14.93;13.27;;;24.80;65.60;;;;;;4615260;55;21085;-35
2023/06/13 10:36:16;;;;;;;16.98;12.57;;;24.80;65.70;;;;;;4633994;56;21008;-36
2023/06/13 10:42:39;;;;;;;15.13;12.43;;;24.70;65.60;;;;;;4669942;56;21523;-36
2023/06/13 10:47:40;;;;;;;14.30;11.48;;;24.80;66.10;;;;;;4614864;56;21511;-38
2023/06/13 10:52:49;;;;;;;13.77;11.98;;;24.90;65.70;;;;;;4640370;55;21108;-35
2023/06/13 10:57:56;;;;;;;13.20;11.80;;;24.90;65.90;;;;;;4628877;56;21975;-37
2023/06/13 11:03:16;;;;;;;15.95;13.10;;;24.90;65.70;;;;;;4620071;56;20997;-33
2023/06/13 11:08:22;;;;;;;14.43;12.23;;;24.90;65.60;;;;;;4633809;56;21702;-35
2023/06/13 11:13:31;;;;;;;17.30;12.93;;;24.80;65.80;;;;;;4630290;56;21029;-34
2023/06/13 11:18:34;;;;;;;17.02;12.75;;;24.80;65.70;;;;;;4621930;56;21499;-37
2023/06/13 11:23:55;;;;;;;16.23;13.20;;;24.90;66.10;;;;;;4614627;57;21019;-33
2023/06/13 11:28:56;;;;;;;16.87;13.48;;;25.00;66.10;;;;;;4627793;55;21022;-35
2023/06/13 11:34:03;;;;;;;16.40;12.88;;;25.00;66.50;;;;;;4620819;56;21065;-35
2023/06/13 11:39:08;;;;;;;15.10;12.05;;;25.00;65.90;;;;;;4625790;56;21009;-35
2023/06/13 11:44:09;;;;;;;16.48;12.95;;;25.10;65.80;;;;;;4616136;56;21049;-37
2023/06/13 11:49:14;;;;;;;15.20;13.13;;;25.10;65.70;;;;;;4676986;56;21021;-35
2023/06/13 11:54:17;;;;;;;15.10;13.25;;;25.10;65.80;;;;;;4614531;56;21097;-34
2023/06/13 11:59:22;;;;;;;16.05;12.13;;;25.10;66.20;;;;;;4613229;60;21691;-35
2023/06/13 12:04:25;;;;;;;15.30;12.98;;;25.10;66.00;;;;;;4613101;60;21105;-37
2023/06/13 12:09:26;;;;;;;15.95;12.80;;;25.10;66.20;;;;;;4665436;56;21522;-31
2023/06/13 12:14:28;;;;;;;16.55;12.20;;;25.00;66.00;;;;;;4671777;55;21491;-38
2023/06/13 12:19:29;;;;;;;13.43;12.02;;;24.90;66.10;;;;;;4631935;55;21089;-35
2023/06/13 12:24:31;;;;;;;14.48;12.48;;;24.90;66.20;;;;;;4636963;55;21033;-38
2023/06/13 12:29:34;;;;;;;14.65;12.30;;;24.90;66.40;;;;;;4624171;56;21045;-36
2023/06/13 12:34:41;;;;;;;14.75;12.52;;;24.90;66.30;;;;;;4622122;55;22375;-38
2023/06/13 12:40:12;;;;;;;15.30;12.88;;;24.80;66.20;;;;;;4637031;56;21659;-36
2023/06/13 12:45:14;;;;;;;15.10;12.63;;;24.80;66.30;;;;;;4623468;56;21654;-35
2023/06/13 12:50:16;;;;;;;14.82;12.82;;;24.80;66.20;;;;;;4671103;55;21025;-37
2023/06/13 12:55:24;;;;;;;16.23;13.32;;;24.80;66.30;;;;;;4684280;55;21084;-34
2023/06/13 13:00:24;;;;;;;15.32;12.57;;;24.80;66.20;;;;;;4619778;55;21057;-35
2023/06/13 13:05:30;;;;;;;15.05;12.50;;;24.80;66.20;;;;;;4615716;59;21110;-35
2023/06/13 13:10:31;;;;;;;14.85;13.23;;;24.80;66.20;;;;;;4614606;59;21093;-37
2023/06/13 13:15:32;;;;;;;14.55;12.40;;;24.80;66.20;;;;;;4669075;56;21650;-35
2023/06/13 13:20:33;;;;;;;13.95;11.85;;;24.80;66.20;;;;;;4684832;55;21089;-38
2023/06/13 13:25:34;;;;;;;15.02;12.70;;;24.80;66.20;;;;;;4631921;56;21488;-39
2023/06/13 13:30:35;;;;;;;15.93;13.20;;;24.80;66.00;;;;;;4614919;59;21049;-38
2023/06/13 13:35:36;;;;;;;14.40;12.80;;;24.80;66.00;;;;;;4646917;55;21025;-35
2023/06/13 13:40:37;;;;;;;13.20;11.80;;;24.70;65.90;;;;;;4620587;55;21053;-37
2023/06/13 13:45:38;;;;;;;15.90;11.80;;;24.80;66.00;;;;;;4650930;55;21579;-38
2023/06/13 13:50:39;;;;;;;14.87;12.88;;;24.70;65.90;;;;;;4652221;55;21046;-36
2023/06/13 13:55:40;;;;;;;14.75;13.05;;;24.70;65.90;;;;;;4615528;59;21511;-39
2023/06/13 14:00:41;;;;;;;13.52;12.13;;;24.70;65.80;;;;;;4756260;56;21512;-37
2023/06/13 14:05:42;;;;;;;15.52;12.57;;;24.70;65.90;;;;;;4768720;55;21053;-36
2023/06/13 14:10:43;;;;;;;14.05;12.60;;;24.70;65.90;;;;;;4615073;55;21029;-38
2023/06/13 14:15:43;;;;;;;16.33;12.77;;;24.70;65.90;;;;;;4669001;56;21148;-36
2023/06/13 14:20:45;;;;;;;15.50;13.80;;;24.70;65.90;;;;;;4744619;55;21527;-38
2023/06/13 14:25:46;;;;;;;14.25;12.75;;;24.70;65.90;;;;;;4615219;60;21538;-33
2023/06/13 14:30:47;;;;;;;13.52;12.13;;;24.70;65.80;;;;;;4764347;55;21049;-36
2023/06/13 14:35:48;;;;;;;14.35;12.85;;;24.70;65.80;;;;;;4695167;55;21021;-38
2023/06/13 14:40:50;;;;;;;14.45;12.10;;;24.70;65.80;;;;;;4615174;59;21044;-37
2023/06/13 14:45:50;;;;;;;13.98;12.45;;;24.70;65.70;;;;;;4681798;56;21050;-38
2023/06/13 14:50:51;;;;;;;15.43;12.02;;;24.70;65.80;;;;;;4614879;59;21515;-36
2023/06/13 14:55:55;;;;;;;14.30;12.82;;;24.70;65.80;;;;;;4621665;55;21183;-37
2023/06/13 15:00:56;;;;;;;14.10;12.60;;;24.70;65.70;;;;;;4683625;56;21021;-36
2023/06/13 15:05:57;;;;;;;14.60;11.93;;;24.70;65.60;;;;;;4670920;56;21029;-38
2023/06/13 15:10:57;;;;;;;14.38;12.77;;;24.70;65.60;;;;;;4660413;55;21104;-36
2023/06/13 15:15:59;;;;;;;15.05;12.57;;;24.70;65.60;;;;;;4615333;60;21012;-36
2023/06/13 15:21:00;;;;;;;14.55;11.98;;;24.70;65.60;;;;;;4662879;55;21665;-37
2023/06/13 15:26:04;;;;;;;13.52;12.07;;;24.70;65.60;;;;;;4615192;60;21010;-36
2023/06/13 15:31:08;;;;;;;13.07;11.45;;;24.70;65.60;;;;;;4614549;59;21045;-37
2023/06/13 15:36:09;;;;;;;14.57;12.25;;;24.70;65.60;;;;;;4616568;56;21077;-35
2023/06/13 15:41:10;;;;;;;14.48;12.32;;;24.70;65.60;;;;;;4728624;56;21611;-36
2023/06/13 15:46:11;;;;;;;12.93;11.50;;;24.60;65.50;;;;;;4695045;56;21092;-37
2023/06/13 15:51:12;;;;;;;13.40;12.00;;;24.70;65.50;;;;;;4614952;60;22360;-37
2023/06/13 15:56:12;;;;;;;13.75;12.25;;;24.60;65.60;;;;;;4640446;55;21017;-36
2023/06/13 16:01:14;;;;;;;12.57;11.27;;;24.70;65.50;;;;;;4640853;55;21048;-36
2023/06/13 16:06:16;;;;;;;12.48;11.00;;;24.70;65.50;;;;;;4660056;55;21993;-37
2023/06/13 16:11:17;;;;;;;12.85;10.95;;;24.60;65.40;;;;;;4639137;56;21586;-34
2023/06/13 16:16:18;;;;;;;13.07;11.65;;;24.70;65.50;;;;;;4704942;55;22199;-37
2023/06/13 16:21:19;;;;;;;13.10;11.55;;;24.70;65.50;;;;;;4806398;55;21064;-37
2023/06/13 16:26:20;;;;;;;12.68;11.38;;;24.70;65.40;;;;;;4615767;59;21045;-37
2023/06/13 16:31:21;;;;;;;12.77;11.20;;;24.70;65.50;;;;;;4614714;60;21028;-35
2023/06/13 16:36:22;;;;;;;12.68;10.63;;;24.70;65.50;;;;;;4615488;59;21041;-35
2023/06/13 16:41:23;;;;;;;12.55;11.32;;;24.70;65.50;;;;;;4653720;55;21528;-37
2023/06/13 16:46:25;;;;;;;11.82;10.45;;;24.70;65.40;;;;;;4638654;56;21054;-37
2023/06/13 16:51:27;;;;;;;13.45;11.05;;;24.70;65.40;;;;;;4730367;56;21366;-36
2023/06/13 16:56:28;;;;;;;11.85;10.70;;;24.70;65.50;;;;;;4675907;56;21053;-38
2023/06/13 17:01:28;;;;;;;11.55;10.38;;;24.70;65.40;;;;;;4627368;55;21815;-37
2023/06/13 17:06:29;;;;;;;14.43;11.23;;;24.70;65.40;;;;;;4731816;55;21896;-38
2023/06/13 17:11:31;;;;;;;13.80;11.07;;;24.70;65.40;;;;;;4653751;55;21045;-34
2023/06/13 17:16:33;;;;;;;12.68;11.27;;;24.70;65.30;;;;;;4618618;55;21766;-37
2023/06/13 17:21:35;;;;;;;13.35;11.02;;;24.70;65.30;;;;;;4627724;55;21671;-37
2023/06/13 17:26:39;;;;;;;11.23;9.65;;;24.70;65.30;;;;;;4623056;55;21519;-38
2023/06/13 17:31:40;;;;;;;12.05;10.63;;;24.60;65.20;;;;;;4615208;56;21571;-37
2023/06/13 17:36:41;;;;;;;11.95;10.68;;;24.70;65.30;;;;;;4625092;55;21580;-36
2023/06/13 17:41:41;;;;;;;11.15;9.98;;;24.70;65.20;;;;;;4676943;55;21117;-34
2023/06/13 17:46:43;;;;;;;11.35;9.93;;;24.70;65.30;;;;;;4643343;56;21487;-36
2023/06/13 17:51:44;;;;;;;10.77;9.73;;;24.70;65.20;;;;;;4699072;56;21100;-39
2023/06/13 17:56:45;;;;;;;10.65;9.55;;;24.70;65.20;;;;;;4642643;56;21033;-36
2023/06/13 18:01:48;;;;;;;10.52;9.52;;;24.60;65.30;;;;;;4658382;56;21017;-39
2023/06/13 18:06:49;;;;;;;11.15;9.85;;;24.70;65.20;;;;;;4649205;56;21476;-38
2023/06/13 18:11:53;;;;;;;10.77;9.57;;;24.70;65.20;;;;;;4614510;60;21029;-37
2023/06/13 18:16:54;;;;;;;11.77;10.45;;;24.70;65.20;;;;;;4622278;56;21590;-35
2023/06/13 18:21:55;;;;;;;10.80;9.50;;;24.60;65.10;;;;;;4618189;55;21499;-37
2023/06/13 18:26:56;;;;;;;10.60;9.50;;;24.70;65.20;;;;;;4683604;56;21017;-34
2023/06/13 18:31:57;;;;;;;11.07;9.95;;;24.70;65.20;;;;;;4665078;56;21085;-34
2023/06/13 18:36:58;;;;;;;10.65;9.60;;;24.70;65.20;;;;;;4620821;56;21029;-35
2023/06/13 18:41:59;;;;;;;11.23;9.35;;;24.70;65.10;;;;;;4647981;56;21069;-37
2023/06/13 18:46:59;;;;;;;11.73;10.25;;;24.70;65.20;;;;;;4697454;56;21060;-38
2023/06/13 18:52:05;;;;;;;10.50;9.50;;;24.60;65.10;;;;;;4618092;55;21044;-37
2023/06/13 18:57:07;;;;;;;11.65;9.75;;;24.70;65.20;;;;;;4764801;56;21085;-36
2023/06/13 19:02:09;;;;;;;11.75;10.13;;;24.70;65.10;;;;;;4615337;60;21512;-35
2023/06/13 19:07:10;;;;;;;11.68;9.38;;;24.70;65.10;;;;;;4643468;56;21511;-37
2023/06/13 19:12:12;;;;;;;9.60;8.60;;;24.70;65.10;;;;;;4614446;60;21089;-37
2023/06/13 19:17:13;;;;;;;11.77;9.77;;;24.60;65.10;;;;;;4631508;56;21934;-36
2023/06/13 19:22:14;;;;;;;10.65;9.15;;;24.60;65.00;;;;;;4615940;60;21882;-37
2023/06/13 19:27:15;;;;;;;10.07;9.07;;;24.70;65.10;;;;;;4631597;56;21375;-35
2023/06/13 19:32:17;;;;;;;10.45;9.35;;;24.70;65.00;;;;;;4614838;60;21942;-38
2023/06/13 19:37:18;;;;;;;10.70;9.60;;;24.60;65.00;;;;;;4717501;56;21957;-37
2023/06/13 19:42:22;;;;;;;11.35;9.25;;;24.70;65.00;;;;;;4631711;56;21446;-36
2023/06/13 19:47:22;;;;;;;10.30;9.30;;;24.70;65.00;;;;;;4672337;56;21092;-36
2023/06/13 19:52:24;;;;;;;11.07;9.45;;;24.70;65.00;;;;;;4631503;56;21130;-37
2023/06/13 19:57:28;;;;;;;10.75;9.63;;;24.60;64.90;;;;;;4673800;56;21647;-36
2023/06/13 20:02:29;;;;;;;10.77;9.70;;;24.60;64.90;;;;;;4615349;60;21555;-37
2023/06/13 20:07:30;;;;;;;10.07;8.85;;;24.60;64.90;;;;;;4701599;56;21526;-35
2023/06/13 20:12:31;;;;;;;11.82;9.88;;;24.60;64.40;;;;;;4738682;56;21060;-37
2023/06/13 20:17:35;;;;;;;10.77;9.38;;;24.60;64.90;;;;;;4674510;56;21025;-37
2023/06/13 20:22:44;;;;;;;10.07;9.18;;;24.60;64.80;;;;;;4615534;56;21499;-35
2023/06/13 20:27:45;;;;;;;10.75;9.65;;;24.60;64.90;;;;;;4718416;56;21929;-36
2023/06/13 20:32:47;;;;;;;9.88;8.88;;;24.60;64.70;;;;;;4669247;56;21643;-36
2023/06/13 20:37:47;;;;;;;10.18;9.23;;;24.60;64.80;;;;;;4615553;60;21098;-40
2023/06/13 20:42:49;;;;;;;9.80;8.82;;;24.60;64.70;;;;;;4615056;60;21619;-37
2023/06/13 20:47:56;;;;;;;10.10;8.93;;;24.60;64.70;;;;;;4709455;56;21041;-38
2023/06/13 20:52:57;;;;;;;11.50;9.77;;;24.60;64.80;;;;;;4730720;56;21483;-38
2023/06/13 20:57:58;;;;;;;10.65;8.65;;;24.60;64.70;;;;;;4659992;56;21512;-38
2023/06/13 21:02:59;;;;;;;10.55;9.40;;;24.60;64.70;;;;;;4645859;56;21001;-38
2023/06/13 21:08:00;;;;;;;10.13;8.98;;;24.60;64.70;;;;;;4668412;56;21500;-38
2023/06/13 21:13:02;;;;;;;8.68;7.82;;;24.60;64.70;;;;;;4677931;56;21021;-38
2023/06/13 21:18:04;;;;;;;9.80;8.80;;;24.60;64.60;;;;;;4629243;56;21037;-40
2023/06/13 21:23:05;;;;;;;10.70;9.43;;;24.60;64.70;;;;;;4616684;56;21475;-38
2023/06/13 21:28:06;;;;;;;9.82;8.02;;;24.60;64.70;;;;;;4618236;56;21085;-38
2023/06/13 21:33:07;;;;;;;10.82;8.85;;;24.60;64.70;;;;;;4619033;56;21081;-35
2023/06/13 21:38:08;;;;;;;9.80;8.48;;;24.60;64.80;;;;;;4615122;60;21519;-36
2023/06/13 21:43:09;;;;;;;9.25;8.35;;;24.60;64.80;;;;;;4703617;56;21010;-38
2023/06/13 21:48:10;;;;;;;9.93;8.50;;;24.60;64.80;;;;;;4859025;56;21029;-37
2023/06/13 21:53:11;;;;;;;9.65;8.35;;;24.60;64.80;;;;;;4642899;56;21021;-39
2023/06/13 21:58:15;;;;;;;8.90;8.00;;;24.60;64.90;;;;;;4615585;60;21088;-37
2023/06/13 22:03:16;;;;;;;8.60;7.78;;;24.60;64.80;;;;;;4621661;56;21551;-35
2023/06/13 22:08:17;;;;;;;9.45;8.45;;;24.60;64.80;;;;;;4712111;56;21089;-36
2023/06/13 22:13:18;;;;;;;9.07;8.18;;;24.60;64.80;;;;;;4686801;56;21650;-36
2023/06/13 22:18:23;;;;;;;8.65;7.75;;;24.60;64.90;;;;;;4646223;56;21112;-38
2023/06/13 22:23:24;;;;;;;9.15;8.25;;;24.60;64.90;;;;;;4653647;56;21526;-35
2023/06/13 22:28:25;;;;;;;7.95;7.22;;;24.60;64.90;;;;;;4615375;56;21021;-33
2023/06/13 22:33:26;;;;;;;9.15;8.13;;;24.60;64.90;;;;;;4657467;56;21144;-37
2023/06/13 22:38:26;;;;;;;8.70;7.82;;;24.60;65.00;;;;;;4645570;56;21054;-35
2023/06/13 22:43:27;;;;;;;8.00;7.20;;;24.60;65.00;;;;;;4615049;56;21606;-37
2023/06/13 22:48:31;;;;;;;8.40;7.50;;;24.60;65.10;;;;;;4615357;60;21098;-37
2023/06/13 22:53:32;;;;;;;8.70;7.90;;;24.60;65.10;;;;;;4615462;60;21045;-37
2023/06/13 22:58:33;;;;;;;8.95;8.05;;;24.60;65.00;;;;;;4636054;56;21539;-36
2023/06/13 23:03:34;;;;;;;8.82;7.93;;;24.60;65.10;;;;;;4615831;56;21116;-36
2023/06/13 23:08:34;;;;;;;8.18;7.37;;;24.60;65.00;;;;;;4615292;60;21417;-34
2023/06/13 23:13:35;;;;;;;8.27;7.47;;;24.60;65.20;;;;;;4615417;60;21207;-38
2023/06/13 23:18:38;;;;;;;7.62;6.85;;;24.60;65.10;;;;;;4749454;56;21163;-35
2023/06/13 23:23:39;;;;;;;7.97;7.18;;;24.60;65.20;;;;;;4674890;56;21572;-36
2023/06/13 23:28:41;;;;;;;8.10;7.30;;;24.60;65.10;;;;;;4656992;56;21591;-37
2023/06/13 23:33:42;;;;;;;8.60;7.30;;;24.60;65.20;;;;;;4615549;60;21561;-38
2023/06/13 23:38:43;;;;;;;8.40;7.60;;;24.60;65.10;;;;;;4692233;56;21133;-38
2023/06/13 23:43:44;;;;;;;8.45;7.53;;;24.60;65.10;;;;;;4615030;60;21643;-36
2023/06/13 23:48:45;;;;;;;8.20;7.40;;;24.60;65.10;;;;;;4701436;56;21048;-36
2023/06/13 23:53:45;;;;;;;8.32;7.30;;;24.60;65.20;;;;;;4650221;56;21025;-35
2023/06/13 23:58:46;;;;;;;8.15;7.35;;;24.60;65.20;;;;;;4668798;56;21021;-37
